Terminal Aerodrome Forecast
Issued by NWS

Home | Current Version | Previous Version | Text Only | Print | Product List | Glossary On
Versions: 1 2 3 4 5 6 7 8 9 10 11 12 13 14
000
FTUS42 KMHX 110500
TAFOAJ
TAF
KOAJ 110533Z 1106/1206 20004KT P6SM VCSH SCT040 OVC150
     FM110800 20002KT 4SM BR VCSH BKN009
     FM111400 20004KT P6SM VCSH BKN020
     FM111800 VRB05KT P6SM VCTS SCT020 BKN035CB
      AMD LTD TO CLD VIS AND WIND=

USA.gov is the U.S. government's official web portal to all federal, state and local government web resources and services.